메인 페이지
METAR-TAF:

METAR-TAF

공항 :

위치토, 캔자스, 미국

위도: 37-37N, 경도: 097-16W, 고도: 418m

현재 날씨관측

예보는 16분 전, 22:56시(UTC)에 발표되었습니다.
북서11kt
온도 24°C
습도 69%
기압 1009 hPa
시정: 16.1km
고도 2300ft 상공 구름 보통
고도 3000ft 상공 구름 많음
고도 3500ft 상공 흐림

METAR: KIAB 192256Z AUTO 31011KT 10SM SCT023 BKN030 OVC035 24/18 A2980 RMK AO2 SLP082 T02350184 $

시각: 18:12 (23:12 UTC)

예보

예보는 1 시간 45분 전, 21:27시(UTC)에 발표되었습니다.
예보 대상 시간: 19일 21시부터 20일 24시까지 (UTC)
10kt, 순간 최대 풍속 15kt
시정: 8000m
고도 1000ft 상공 구름 보통
고도 2000ft 상공 흐림
약한소나기
전환 중
20일 01시부터 20일 02시까지 (UTC)
북북서9kt
시정 10km 이상
고도 1000ft 상공 구름 많음
고도 2500ft 상공 흐림
전환 중
20일 08시부터 20일 09시까지 (UTC)
서북서6kt
시정 10km 이상
고도 600ft 상공 구름 많음
고도 1500ft 상공 흐림
전환 중
20일 14시부터 20일 15시까지 (UTC)
서북서10kt, 순간 최대 풍속 20kt
시정 10km 이상
고도 2000ft 상공 흐림

TAF: KIAB 192127Z 1921/2024 27010G15KT 8000 -SHRA SCT010 OVC020 QNH2977INS BECMG 2001/2002 33009KT 9999 NSW BKN010 OVC025 QNH2976INS BECMG 2008/2009 29006KT 9999 BKN006 OVC015 QNH2980INS BECMG 2014/2015 30010G20KT 9999 OVC020 QNH2988INS TX26/1921Z TN19/2012Z

4,000개 이상의 공항 관측 자료 및 예보 (METAR 및 TAF 보고).

지도상에서 검색 가능한 기상관측소가 노란 점과 빨간 점으로 표시되어 있습니다.

기상관측소 명을 보려면 표시 위로 마우스를 이동하세요.

날씨 관측과 예보를 보려면 클릭하세요.

지도 변경 : 확대하려면 엑스 표시가 있는 녹색 버튼, 축소하려면 빼기 표시가 있는 녹색 버튼, 다음 페이지의 지도를 보려면 녹색 화살표를 클릭하세요.


METAR-TAF: